EKRK

Copenhagen Roskilde Airport

Copenhagen, Denmark
METAR EKRK 181950Z AUTO 25009KT 6000NDV FEW009/// OVC020/// 02/01 Q1023
Observed Flight Rules
Dec-18 @ 19:50 UTC (31 minutes ago)
Wind Clouds
250° at 9 knots
  • Few at 900' AGL
  • Overcast at 2,000' AGL
Temperatures Readings
Current 2°C / 36°F
Dewpoint 1°C / 34°F
Humidity 93%
Altimeter 30.21" Hg
Pressure 1023 hPa
Elevation 44
METAR EKRK 181950Z AUTO 25009KT 6000NDV FEW009/// OVC020/// 02/01 Q1023
Observed Flight Rules
Dec-18 @ 19:50 UTC
(31 minutes ago)
Wind
250° at 9 knots
Clouds
  • Few at 900' AGL
  • Overcast at 2,000' AGL
Temperature Dewpoint
2°C / 36°F 1°C / 34°F
Humidity Altimeter Pressure
93% 30.21" Hg 1023 hPa